createdAt,value
2022-10-10T00:00:21.160Z,1003.16
2022-10-10T00:01:21.184Z,1003.14
2022-10-10T00:02:21.161Z,1003.14
2022-10-10T00:03:21.158Z,1003.12
2022-10-10T00:04:21.123Z,1003.12
2022-10-10T00:05:21.108Z,1003.11
2022-10-10T00:06:21.114Z,1003.11
2022-10-10T00:07:21.099Z,1003.11
2022-10-10T00:08:21.084Z,1003.11
2022-10-10T00:09:21.068Z,1003.10
2022-10-10T00:10:21.050Z,1003.11
2022-10-10T00:11:21.083Z,1003.09
2022-10-10T00:12:21.020Z,1003.11
2022-10-10T00:13:21.028Z,1003.10
2022-10-10T00:14:21.011Z,1003.10
2022-10-10T00:15:21.010Z,1003.09
2022-10-10T00:16:21.016Z,1003.09
2022-10-10T00:17:21.036Z,1003.08
2022-10-10T00:18:20.966Z,1003.08
2022-10-10T00:19:20.972Z,1003.07
2022-10-10T00:20:20.942Z,1003.06
2022-10-10T00:21:20.939Z,1003.05
2022-10-10T00:22:20.948Z,1003.04
2022-10-10T00:23:20.942Z,1003.04
2022-10-10T00:24:20.907Z,1003.03
2022-10-10T00:25:20.894Z,1003.02
2022-10-10T00:26:20.897Z,1003.03
2022-10-10T00:27:20.910Z,1003.03
2022-10-10T00:28:20.893Z,1003.03
2022-10-10T00:29:20.852Z,1003.03
2022-10-10T00:30:20.846Z,1003.03
2022-10-10T00:31:20.841Z,1003.02
2022-10-10T00:32:20.818Z,1003.01
2022-10-10T00:33:20.839Z,1003.02
2022-10-10T00:34:20.793Z,1003.03
2022-10-10T00:35:20.802Z,1003.02
2022-10-10T00:36:20.771Z,1003.02
2022-10-10T00:37:20.791Z,1003.03
2022-10-10T00:38:20.774Z,1003.00
2022-10-10T00:39:20.753Z,1003.01
2022-10-10T00:40:20.739Z,1003.00
2022-10-10T00:41:20.733Z,1003.00
2022-10-10T00:42:20.711Z,1003.01
2022-10-10T00:43:20.739Z,1002.99
2022-10-10T00:44:20.693Z,1002.98
2022-10-10T00:45:20.680Z,1002.98
2022-10-10T00:46:20.673Z,1002.96
2022-10-10T00:47:20.673Z,1002.96
2022-10-10T00:48:20.649Z,1002.94
2022-10-10T00:49:20.655Z,1002.94
2022-10-10T00:50:20.627Z,1002.93
2022-10-10T00:51:20.653Z,1002.92
2022-10-10T00:52:20.599Z,1002.91
2022-10-10T00:53:20.616Z,1002.91
2022-10-10T00:54:20.590Z,1002.89
2022-10-10T00:55:20.586Z,1002.88
2022-10-10T00:56:20.563Z,1002.87
2022-10-10T00:57:20.555Z,1002.86
2022-10-10T00:58:20.564Z,1002.85
2022-10-10T00:59:20.545Z,1002.85
2022-10-10T01:00:20.520Z,1002.84
2022-10-10T01:01:20.547Z,1002.84
2022-10-10T01:02:20.505Z,1002.83
2022-10-10T01:03:20.529Z,1002.84
2022-10-10T01:04:20.478Z,1002.83
2022-10-10T01:05:20.475Z,1002.83
2022-10-10T01:06:20.461Z,1002.83
2022-10-10T01:07:20.464Z,1002.82
2022-10-10T01:08:20.438Z,1002.83
2022-10-10T01:09:20.449Z,1002.82
2022-10-10T01:10:20.429Z,1002.81
2022-10-10T01:11:20.415Z,1002.82
2022-10-10T01:12:20.389Z,1002.82
2022-10-10T01:13:20.394Z,1002.82
2022-10-10T01:14:20.413Z,1002.81
2022-10-10T01:15:20.378Z,1002.81
2022-10-10T01:16:20.531Z,1002.81
2022-10-10T01:17:20.346Z,1002.79
2022-10-10T01:18:20.353Z,1002.79
2022-10-10T01:19:20.335Z,1002.79
2022-10-10T01:20:20.319Z,1002.79
2022-10-10T01:21:20.296Z,1002.78
2022-10-10T01:22:20.286Z,1002.75
2022-10-10T01:23:20.284Z,1002.75
2022-10-10T01:24:20.282Z,1002.73
2022-10-10T01:25:20.268Z,1002.72
2022-10-10T01:26:20.243Z,1002.71
2022-10-10T01:27:20.237Z,1002.70
2022-10-10T01:28:20.251Z,1002.69
2022-10-10T01:29:20.238Z,1002.67
2022-10-10T01:30:20.205Z,1002.67
2022-10-10T01:31:20.204Z,1002.65
2022-10-10T01:32:20.176Z,1002.64
2022-10-10T01:33:20.180Z,1002.64
2022-10-10T01:34:20.185Z,1002.61
2022-10-10T01:35:20.155Z,1002.60
2022-10-10T01:36:20.129Z,1002.60
2022-10-10T01:37:20.130Z,1002.59
2022-10-10T01:38:20.146Z,1002.57
2022-10-10T01:39:20.117Z,1002.56
2022-10-10T01:40:20.122Z,1002.56
2022-10-10T01:41:20.093Z,1002.55
2022-10-10T01:42:20.072Z,1002.54
2022-10-10T01:43:20.096Z,1002.52
2022-10-10T01:44:20.703Z,1002.52
2022-10-10T01:45:20.052Z,1002.52
2022-10-10T01:46:20.031Z,1002.50
2022-10-10T01:47:20.025Z,1002.50
2022-10-10T01:48:20.030Z,1002.48
2022-10-10T01:49:20.020Z,1002.47
2022-10-10T01:50:19.991Z,1002.46
2022-10-10T01:51:20.005Z,1002.46
2022-10-10T01:52:19.959Z,1002.45
2022-10-10T01:53:19.955Z,1002.44
2022-10-10T01:54:19.973Z,1002.43
2022-10-10T01:55:19.949Z,1002.43
2022-10-10T01:56:19.922Z,1002.43
2022-10-10T01:57:19.914Z,1002.43
2022-10-10T01:58:19.912Z,1002.44
2022-10-10T01:59:19.891Z,1002.42
2022-10-10T02:00:19.923Z,1002.42
2022-10-10T02:01:19.914Z,1002.41
2022-10-10T02:02:19.862Z,1002.42
2022-10-10T02:03:19.847Z,1002.41
2022-10-10T02:04:19.856Z,1002.40
2022-10-10T02:05:19.826Z,1002.39
2022-10-10T02:06:19.826Z,1002.39
2022-10-10T02:07:19.832Z,1002.38
2022-10-10T02:08:19.805Z,1002.37
2022-10-10T02:09:19.809Z,1002.37
2022-10-10T02:10:19.783Z,1002.36
2022-10-10T02:11:19.759Z,1002.35
2022-10-10T02:12:19.758Z,1002.34
2022-10-10T02:13:19.758Z,1002.32
2022-10-10T02:14:19.770Z,1002.31
2022-10-10T02:15:19.722Z,1002.30
2022-10-10T02:16:19.719Z,1002.29
2022-10-10T02:17:19.704Z,1002.26
2022-10-10T02:18:19.694Z,1002.25
2022-10-10T02:19:19.681Z,1002.22
2022-10-10T02:20:19.689Z,1002.21
2022-10-10T02:21:19.649Z,1002.20
2022-10-10T02:22:19.650Z,1002.20
2022-10-10T02:23:19.631Z,1002.20
2022-10-10T02:24:19.647Z,1002.20
2022-10-10T02:25:19.619Z,1002.19
2022-10-10T02:26:19.598Z,1002.18
2022-10-10T02:27:19.592Z,1002.19
2022-10-10T02:28:19.637Z,1002.17
2022-10-10T02:29:19.586Z,1002.16
2022-10-10T02:30:19.581Z,1002.16
2022-10-10T02:31:19.547Z,1002.14
2022-10-10T02:32:19.550Z,1002.14
2022-10-10T02:33:19.532Z,1002.12
2022-10-10T02:34:19.531Z,1002.10
2022-10-10T02:35:19.515Z,1002.09
2022-10-10T02:36:19.498Z,1002.08
2022-10-10T02:37:19.482Z,1002.07
2022-10-10T02:38:19.479Z,1002.05
2022-10-10T02:39:19.470Z,1002.05
2022-10-10T02:40:19.463Z,1002.05
2022-10-10T02:41:19.440Z,1002.03
2022-10-10T02:42:19.442Z,1002.03
2022-10-10T02:43:19.424Z,1002.04
2022-10-10T02:44:19.417Z,1002.04
2022-10-10T02:45:19.405Z,1002.04
2022-10-10T02:46:19.393Z,1002.04
2022-10-10T02:47:19.384Z,1002.04
2022-10-10T02:48:19.378Z,1002.03
2022-10-10T02:49:19.362Z,1002.03
2022-10-10T02:50:19.368Z,1002.03
2022-10-10T02:51:19.336Z,1002.03
2022-10-10T02:52:19.332Z,1002.03
2022-10-10T02:53:19.421Z,1002.01
2022-10-10T02:54:19.312Z,1002.00
2022-10-10T02:55:19.326Z,1001.98
2022-10-10T02:56:19.291Z,1001.97
2022-10-10T02:57:19.271Z,1001.97
2022-10-10T02:58:19.271Z,1001.96
2022-10-10T02:59:19.246Z,1001.94
2022-10-10T03:00:19.244Z,1001.93
2022-10-10T03:01:19.296Z,1001.90
2022-10-10T03:02:19.222Z,1001.87
2022-10-10T03:03:19.216Z,1001.88
2022-10-10T03:04:19.224Z,1001.86
2022-10-10T03:05:19.193Z,1001.85
2022-10-10T03:06:19.211Z,1001.86
2022-10-10T03:07:19.161Z,1001.84
2022-10-10T03:08:19.168Z,1001.82
2022-10-10T03:09:19.166Z,1001.81
2022-10-10T03:10:19.132Z,1001.82
2022-10-10T03:11:19.138Z,1001.82
2022-10-10T03:12:19.130Z,1001.82
2022-10-10T03:13:19.137Z,1001.80
2022-10-10T03:14:19.101Z,1001.80
2022-10-10T03:15:19.073Z,1001.80
2022-10-10T03:16:19.094Z,1001.79
2022-10-10T03:17:19.055Z,1001.77
2022-10-10T03:18:19.044Z,1001.78
2022-10-10T03:19:19.037Z,1001.78
2022-10-10T03:20:19.043Z,1001.77
2022-10-10T03:21:19.041Z,1001.78
2022-10-10T03:22:19.012Z,1001.76
2022-10-10T03:23:18.981Z,1001.74
2022-10-10T03:24:19.005Z,1001.73
2022-10-10T03:25:18.981Z,1001.72
2022-10-10T03:26:18.972Z,1001.73
2022-10-10T03:27:18.948Z,1001.72
2022-10-10T03:28:18.999Z,1001.71
2022-10-10T03:29:18.924Z,1001.72
2022-10-10T03:30:18.935Z,1001.73
2022-10-10T03:31:18.909Z,1001.73
2022-10-10T03:32:18.910Z,1001.72
2022-10-10T03:33:18.885Z,1001.72
2022-10-10T03:34:18.879Z,1001.73
2022-10-10T03:35:18.862Z,1001.73
2022-10-10T03:36:18.887Z,1001.71
2022-10-10T03:37:18.847Z,1001.70
2022-10-10T03:38:18.841Z,1001.68
2022-10-10T03:39:18.816Z,1001.66
2022-10-10T03:40:18.823Z,1001.65
2022-10-10T03:41:18.821Z,1001.64
2022-10-10T03:42:18.810Z,1001.63
2022-10-10T03:43:18.786Z,1001.61
2022-10-10T03:44:20.274Z,1001.61
2022-10-10T03:45:18.757Z,1001.61
2022-10-10T03:46:18.772Z,1001.60
2022-10-10T03:47:18.754Z,1001.58
2022-10-10T03:48:18.744Z,1001.56
2022-10-10T03:49:18.726Z,1001.57
2022-10-10T03:50:18.709Z,1001.58
2022-10-10T03:51:18.699Z,1001.57
2022-10-10T03:52:18.700Z,1001.57
2022-10-10T03:53:18.694Z,1001.56
2022-10-10T03:54:18.671Z,1001.56
2022-10-10T03:55:18.644Z,1001.55
2022-10-10T03:56:18.654Z,1001.55
2022-10-10T03:57:18.670Z,1001.55
2022-10-10T03:58:23.548Z,1001.54
2022-10-10T03:59:18.618Z,1001.53
2022-10-10T04:00:18.635Z,1001.53
2022-10-10T04:01:18.627Z,1001.54
2022-10-10T04:02:18.590Z,1001.52
2022-10-10T04:03:18.581Z,1001.53
2022-10-10T04:04:18.567Z,1001.52
2022-10-10T04:05:18.550Z,1001.52
2022-10-10T04:06:18.548Z,1001.52
2022-10-10T04:07:18.535Z,1001.51
2022-10-10T04:08:18.636Z,1001.51
2022-10-10T04:09:18.506Z,1001.50
2022-10-10T04:10:18.494Z,1001.50
2022-10-10T04:11:18.484Z,1001.49
2022-10-10T04:12:18.498Z,1001.50
2022-10-10T04:13:18.474Z,1001.51
2022-10-10T04:14:18.512Z,1001.50
2022-10-10T04:15:18.430Z,1001.49
2022-10-10T04:16:18.440Z,1001.49
2022-10-10T04:17:18.421Z,1001.47
2022-10-10T04:18:18.460Z,1001.47
2022-10-10T04:19:18.426Z,1001.45
2022-10-10T04:20:18.393Z,1001.44
2022-10-10T04:21:18.448Z,1001.43
2022-10-10T04:22:18.377Z,1001.43
2022-10-10T04:23:18.347Z,1001.44
2022-10-10T04:24:18.373Z,1001.43
2022-10-10T04:25:18.340Z,1001.41
2022-10-10T04:26:18.329Z,1001.41
2022-10-10T04:27:18.312Z,1001.41
2022-10-10T04:28:18.402Z,1001.39
2022-10-10T04:29:18.289Z,1001.38
2022-10-10T04:30:18.286Z,1001.38
2022-10-10T04:31:18.263Z,1001.37
2022-10-10T04:32:18.267Z,1001.36
2022-10-10T04:33:18.346Z,1001.36
2022-10-10T04:34:18.245Z,1001.36
2022-10-10T04:35:18.227Z,1001.36
2022-10-10T04:36:18.223Z,1001.34
2022-10-10T04:37:18.207Z,1001.34
2022-10-10T04:38:18.239Z,1001.33
2022-10-10T04:39:18.189Z,1001.32
2022-10-10T04:40:21.547Z,1001.32
2022-10-10T04:41:18.167Z,1001.32
2022-10-10T04:42:18.151Z,1001.32
2022-10-10T04:43:18.146Z,1001.32
2022-10-10T04:44:18.153Z,1001.31
2022-10-10T04:45:18.118Z,1001.31
2022-10-10T04:46:18.120Z,1001.29
2022-10-10T04:47:18.101Z,1001.28
2022-10-10T04:48:18.116Z,1001.28
2022-10-10T04:49:18.086Z,1001.26
2022-10-10T04:50:18.071Z,1001.27
2022-10-10T04:51:18.057Z,1001.27
2022-10-10T04:52:18.056Z,1001.28
2022-10-10T04:53:18.051Z,1001.28
2022-10-10T04:54:18.035Z,1001.29
2022-10-10T04:55:18.014Z,1001.30
2022-10-10T04:56:18.038Z,1001.30
2022-10-10T04:57:17.997Z,1001.31
2022-10-10T04:58:17.984Z,1001.32
2022-10-10T04:59:17.968Z,1001.33
2022-10-10T05:00:17.984Z,1001.33
2022-10-10T05:01:18.151Z,1001.34
2022-10-10T05:02:17.949Z,1001.35
2022-10-10T05:03:17.928Z,1001.35
2022-10-10T05:04:17.947Z,1001.36
2022-10-10T05:05:17.913Z,1001.35
2022-10-10T05:06:17.891Z,1001.36
2022-10-10T05:07:17.889Z,1001.37
2022-10-10T05:08:17.887Z,1001.35
2022-10-10T05:09:17.886Z,1001.35
2022-10-10T05:10:17.855Z,1001.35
2022-10-10T05:11:17.861Z,1001.34
2022-10-10T05:12:17.845Z,1001.34
2022-10-10T05:13:17.840Z,1001.33
2022-10-10T05:14:17.837Z,1001.33
2022-10-10T05:15:17.793Z,1001.32
2022-10-10T05:16:17.775Z,1001.30
2022-10-10T05:17:17.818Z,1001.31
2022-10-10T05:18:17.772Z,1001.29
2022-10-10T05:19:17.753Z,1001.29
2022-10-10T05:20:17.756Z,1001.29
2022-10-10T05:21:17.699Z,1001.30
2022-10-10T05:22:17.741Z,1001.28
2022-10-10T05:23:17.660Z,1001.28
2022-10-10T05:24:17.661Z,1001.27
2022-10-10T05:25:17.644Z,1001.25
2022-10-10T05:26:17.639Z,1001.26
2022-10-10T05:27:17.617Z,1001.25
2022-10-10T05:28:17.659Z,1001.25
2022-10-10T05:29:17.591Z,1001.25
2022-10-10T05:30:17.597Z,1001.22
2022-10-10T05:31:17.583Z,1001.21
2022-10-10T05:32:17.592Z,1001.21
2022-10-10T05:33:17.568Z,1001.20
2022-10-10T05:34:17.566Z,1001.19
2022-10-10T05:35:17.532Z,1001.18
2022-10-10T05:36:17.533Z,1001.17
2022-10-10T05:37:17.521Z,1001.17
2022-10-10T05:38:17.532Z,1001.18
2022-10-10T05:39:17.480Z,1001.18
2022-10-10T05:40:17.494Z,1001.20
2022-10-10T05:41:17.489Z,1001.20
2022-10-10T05:42:17.463Z,1001.22
2022-10-10T05:43:17.446Z,1001.23
2022-10-10T05:44:17.460Z,1001.23
2022-10-10T05:45:17.429Z,1001.24
2022-10-10T05:46:17.422Z,1001.22
2022-10-10T05:47:17.394Z,1001.22
2022-10-10T05:48:17.405Z,1001.21
2022-10-10T05:49:17.397Z,1001.21
2022-10-10T05:50:17.388Z,1001.21
2022-10-10T05:51:17.373Z,1001.21
2022-10-10T05:52:17.359Z,1001.20
2022-10-10T05:53:17.338Z,1001.19
2022-10-10T05:54:17.336Z,1001.18
2022-10-10T05:55:17.313Z,1001.18
2022-10-10T05:56:17.330Z,1001.17
2022-10-10T05:57:17.307Z,1001.17
2022-10-10T05:58:17.286Z,1001.17
2022-10-10T05:59:17.270Z,1001.18
2022-10-10T06:00:17.267Z,1001.19
2022-10-10T06:01:17.270Z,1001.18
2022-10-10T06:02:17.360Z,1001.19
2022-10-10T06:03:17.284Z,1001.19
2022-10-10T06:04:17.244Z,1001.20
2022-10-10T06:05:17.212Z,1001.18
2022-10-10T06:06:17.209Z,1001.17
2022-10-10T06:07:17.213Z,1001.17
2022-10-10T06:08:17.185Z,1001.17
2022-10-10T06:09:17.171Z,1001.16
2022-10-10T06:10:17.181Z,1001.18
2022-10-10T06:11:17.140Z,1001.17
2022-10-10T06:12:17.175Z,1001.18
2022-10-10T06:13:21.584Z,1001.18
2022-10-10T06:14:17.134Z,1001.18
2022-10-10T06:15:17.111Z,1001.19
2022-10-10T06:16:17.107Z,1001.19
2022-10-10T06:17:17.096Z,1001.20
2022-10-10T06:18:17.074Z,1001.22
2022-10-10T06:19:17.082Z,1001.22
2022-10-10T06:20:17.049Z,1001.22
2022-10-10T06:21:17.052Z,1001.21
2022-10-10T06:22:17.031Z,1001.21
2022-10-10T06:23:17.155Z,1001.22
2022-10-10T06:24:17.015Z,1001.21
2022-10-10T06:25:38.447Z,1001.22
2022-10-10T06:26:16.996Z,1001.25
2022-10-10T06:27:16.984Z,1001.26
2022-10-10T06:28:17.093Z,1001.28
2022-10-10T06:29:16.959Z,1001.28
2022-10-10T06:30:16.945Z,1001.29
2022-10-10T06:31:16.950Z,1001.27
2022-10-10T06:32:16.922Z,1001.25
2022-10-10T06:33:16.925Z,1001.26
2022-10-10T06:34:16.896Z,1001.27
2022-10-10T06:35:16.905Z,1001.28
2022-10-10T06:36:16.913Z,1001.27
2022-10-10T06:37:16.877Z,1001.27
2022-10-10T06:38:16.860Z,1001.28
2022-10-10T06:39:16.852Z,1001.30
2022-10-10T06:40:16.838Z,1001.30
2022-10-10T06:41:16.838Z,1001.32
2022-10-10T06:42:16.829Z,1001.32
2022-10-10T06:43:16.806Z,1001.33
2022-10-10T06:44:16.797Z,1001.33
2022-10-10T06:45:16.784Z,1001.32
2022-10-10T06:46:16.780Z,1001.31
2022-10-10T06:47:16.792Z,1001.30
2022-10-10T06:48:16.763Z,1001.30
2022-10-10T06:49:16.756Z,1001.26
2022-10-10T06:50:16.727Z,1001.26
2022-10-10T06:51:16.729Z,1001.26
2022-10-10T06:52:16.712Z,1001.24
2022-10-10T06:53:16.716Z,1001.26
2022-10-10T06:54:16.684Z,1001.28
2022-10-10T06:55:16.689Z,1001.30
2022-10-10T06:56:16.674Z,1001.30
2022-10-10T06:57:17.486Z,1001.32
2022-10-10T06:58:17.330Z,1001.34
2022-10-10T06:59:16.644Z,1001.37
2022-10-10T07:00:16.734Z,1001.38
2022-10-10T07:01:17.763Z,1001.39
2022-10-10T07:02:16.607Z,1001.37
2022-10-10T07:03:16.600Z,1001.38
2022-10-10T07:04:16.612Z,1001.39
2022-10-10T07:05:16.581Z,1001.38
2022-10-10T07:06:16.559Z,1001.39
2022-10-10T07:07:16.576Z,1001.41
2022-10-10T07:08:16.536Z,1001.41
2022-10-10T07:09:16.540Z,1001.42
2022-10-10T07:10:16.870Z,1001.45
2022-10-10T07:11:16.516Z,1001.45
2022-10-10T07:12:16.684Z,1001.45
2022-10-10T07:13:16.610Z,1001.45
2022-10-10T07:14:16.471Z,1001.44
2022-10-10T07:15:16.491Z,1001.44
2022-10-10T07:16:16.576Z,1001.45
2022-10-10T07:17:16.467Z,1001.47
2022-10-10T07:18:17.466Z,1001.47
2022-10-10T07:19:16.647Z,1001.48
2022-10-10T07:20:18.077Z,1001.50
2022-10-10T07:21:16.664Z,1001.52
2022-10-10T07:22:16.394Z,1001.49
2022-10-10T07:23:16.389Z,1001.49
2022-10-10T07:24:17.292Z,1001.49
2022-10-10T07:25:16.409Z,1001.51
2022-10-10T07:26:16.369Z,1001.50
2022-10-10T07:27:16.347Z,1001.50
2022-10-10T07:28:16.350Z,1001.49
2022-10-10T07:29:16.353Z,1001.51
2022-10-10T07:30:16.733Z,1001.51
2022-10-10T07:31:16.313Z,1001.50
2022-10-10T07:32:16.286Z,1001.48
2022-10-10T07:33:16.270Z,1001.48
2022-10-10T07:34:16.256Z,1001.48
2022-10-10T07:35:16.253Z,1001.45
2022-10-10T07:36:16.292Z,1001.44
2022-10-10T07:37:16.239Z,1001.43
2022-10-10T07:38:16.217Z,1001.45
2022-10-10T07:39:17.221Z,1001.45
2022-10-10T07:40:18.428Z,1001.46
2022-10-10T07:41:16.309Z,1001.44
2022-10-10T07:42:16.176Z,1001.44
2022-10-10T07:43:16.177Z,1001.43
2022-10-10T07:44:16.171Z,1001.44
2022-10-10T07:45:16.145Z,1001.45
2022-10-10T07:46:16.137Z,1001.43
2022-10-10T07:47:16.148Z,1001.45
2022-10-10T07:48:16.116Z,1001.44
2022-10-10T07:49:16.115Z,1001.45
2022-10-10T07:50:16.090Z,1001.46
2022-10-10T07:51:16.094Z,1001.46
2022-10-10T07:52:16.090Z,1001.48
2022-10-10T07:53:16.074Z,1001.51
2022-10-10T07:54:16.044Z,1001.53
2022-10-10T07:55:16.936Z,1001.57
2022-10-10T07:56:16.028Z,1001.58
2022-10-10T07:57:16.022Z,1001.57
2022-10-10T07:58:16.096Z,1001.58
2022-10-10T07:59:16.888Z,1001.58
2022-10-10T08:00:16.043Z,1001.59
2022-10-10T08:01:16.027Z,1001.59
2022-10-10T08:02:17.391Z,1001.62
2022-10-10T08:03:16.064Z,1001.61
2022-10-10T08:04:15.980Z,1001.62
2022-10-10T08:05:15.953Z,1001.62
2022-10-10T08:06:15.914Z,1001.64
2022-10-10T08:07:15.920Z,1001.63
2022-10-10T08:08:15.914Z,1001.64
2022-10-10T08:09:15.907Z,1001.66
2022-10-10T08:10:15.879Z,1001.65
2022-10-10T08:11:15.865Z,1001.68
2022-10-10T08:12:16.820Z,1001.67
2022-10-10T08:13:15.883Z,1001.65
2022-10-10T08:14:15.858Z,1001.68
2022-10-10T08:15:15.837Z,1001.69
2022-10-10T08:16:16.196Z,1001.71
2022-10-10T08:17:15.808Z,1001.71
2022-10-10T08:18:15.794Z,1001.71
2022-10-10T08:19:15.782Z,1001.71
2022-10-10T08:20:15.821Z,1001.69
2022-10-10T08:21:15.780Z,1001.71
2022-10-10T08:22:15.787Z,1001.71
2022-10-10T08:23:16.371Z,1001.70
2022-10-10T08:24:15.889Z,1001.71
2022-10-10T08:25:15.731Z,1001.72
2022-10-10T08:26:15.707Z,1001.71
2022-10-10T08:27:15.698Z,1001.71
2022-10-10T08:28:15.736Z,1001.70
2022-10-10T08:29:15.685Z,1001.72
2022-10-10T08:30:15.681Z,1001.73
2022-10-10T08:31:15.664Z,1001.72
2022-10-10T08:32:15.642Z,1001.72
2022-10-10T08:33:15.642Z,1001.71
2022-10-10T08:34:15.622Z,1001.69
2022-10-10T08:35:15.636Z,1001.69
2022-10-10T08:36:15.630Z,1001.67
2022-10-10T08:37:15.622Z,1001.66
2022-10-10T08:38:15.578Z,1001.66
2022-10-10T08:39:15.576Z,1001.67
2022-10-10T08:40:15.594Z,1001.68
2022-10-10T08:41:15.557Z,1001.71
2022-10-10T08:42:15.527Z,1001.68
2022-10-10T08:43:15.521Z,1001.69
2022-10-10T08:44:15.525Z,1001.68
2022-10-10T08:45:15.536Z,1001.68
2022-10-10T08:46:15.512Z,1001.67
2022-10-10T08:47:15.479Z,1001.69
2022-10-10T08:48:15.472Z,1001.70
2022-10-10T08:49:15.473Z,1001.68
2022-10-10T08:50:15.474Z,1001.68
2022-10-10T08:51:15.449Z,1001.72
2022-10-10T08:52:15.427Z,1001.70
2022-10-10T08:53:15.438Z,1001.71
2022-10-10T08:54:15.403Z,1001.72
2022-10-10T08:55:15.397Z,1001.73
2022-10-10T08:56:15.388Z,1001.69
2022-10-10T08:57:15.383Z,1001.70
2022-10-10T08:58:15.388Z,1001.73
2022-10-10T08:59:15.357Z,1001.72
2022-10-10T09:00:16.351Z,1001.72
2022-10-10T09:01:15.370Z,1001.76
2022-10-10T09:02:19.214Z,1001.75
2022-10-10T09:03:15.314Z,1001.73
2022-10-10T09:04:15.308Z,1001.76
2022-10-10T09:05:15.306Z,1001.75
2022-10-10T09:06:15.291Z,1001.76
2022-10-10T09:07:15.269Z,1001.77
2022-10-10T09:08:15.285Z,1001.78
2022-10-10T09:09:15.295Z,1001.79
2022-10-10T09:10:15.245Z,1001.79
2022-10-10T09:11:15.214Z,1001.81
2022-10-10T09:12:15.231Z,1001.82
2022-10-10T09:13:15.222Z,1001.82
2022-10-10T09:14:15.213Z,1001.82
2022-10-10T09:15:15.189Z,1001.83
2022-10-10T09:16:15.267Z,1001.88
2022-10-10T09:17:15.169Z,1001.88
2022-10-10T09:18:15.147Z,1001.88
2022-10-10T09:19:17.588Z,1001.85
2022-10-10T09:20:15.156Z,1001.86
2022-10-10T09:21:15.124Z,1001.84
2022-10-10T09:22:15.095Z,1001.86
2022-10-10T09:23:15.124Z,1001.84
2022-10-10T09:24:15.082Z,1001.86
2022-10-10T09:25:15.086Z,1001.85
2022-10-10T09:26:15.087Z,1001.85
2022-10-10T09:27:15.058Z,1001.85
2022-10-10T09:28:15.113Z,1001.86
2022-10-10T09:29:15.029Z,1001.88
2022-10-10T09:30:15.039Z,1001.86
2022-10-10T09:31:15.014Z,1001.85
2022-10-10T09:32:15.032Z,1001.87
2022-10-10T09:33:14.995Z,1001.87
2022-10-10T09:34:14.966Z,1001.85
2022-10-10T09:35:14.986Z,1001.86
2022-10-10T09:36:14.965Z,1001.88
2022-10-10T09:37:24.278Z,1001.86
2022-10-10T09:38:14.933Z,1001.87
2022-10-10T09:39:14.921Z,1001.86
2022-10-10T09:40:14.926Z,1001.84
2022-10-10T09:41:14.929Z,1001.82
2022-10-10T09:42:14.874Z,1001.86
2022-10-10T09:43:14.883Z,1001.85
2022-10-10T09:44:14.867Z,1001.85
2022-10-10T09:45:14.858Z,1001.85
2022-10-10T09:46:14.861Z,1001.83
2022-10-10T09:47:14.850Z,1001.84
2022-10-10T09:48:14.820Z,1001.87
2022-10-10T09:49:14.819Z,1001.83
2022-10-10T09:50:14.789Z,1001.79
2022-10-10T09:51:14.814Z,1001.89
2022-10-10T09:52:14.811Z,1001.79
2022-10-10T09:53:14.840Z,1001.83
2022-10-10T09:54:14.808Z,1001.81
2022-10-10T09:55:14.746Z,1001.82
2022-10-10T09:56:14.743Z,1001.85
2022-10-10T09:57:14.765Z,1001.90
2022-10-10T09:58:14.711Z,1001.85
2022-10-10T09:59:14.707Z,1001.91
2022-10-10T10:00:14.700Z,1001.88
2022-10-10T10:01:14.735Z,1001.86
2022-10-10T10:02:14.669Z,1001.86
2022-10-10T10:03:14.710Z,1001.87
2022-10-10T10:04:30.139Z,1001.90
2022-10-10T10:05:14.658Z,1001.88
2022-10-10T10:06:14.618Z,1001.91
2022-10-10T10:07:14.633Z,1001.92
2022-10-10T10:08:14.609Z,1001.91
2022-10-10T10:09:14.653Z,1001.93
2022-10-10T10:10:14.582Z,1001.95
2022-10-10T10:11:14.569Z,1001.94
2022-10-10T10:12:14.583Z,1001.91
2022-10-10T10:13:14.562Z,1001.89
2022-10-10T10:14:14.535Z,1001.91
2022-10-10T10:15:14.679Z,1001.89
2022-10-10T10:16:14.534Z,1001.84
2022-10-10T10:17:14.615Z,1001.83
2022-10-10T10:18:14.490Z,1001.83
2022-10-10T10:19:14.480Z,1001.81
2022-10-10T10:20:14.494Z,1001.85
2022-10-10T10:21:14.482Z,1001.84
2022-10-10T10:22:18.480Z,1001.86
2022-10-10T10:23:14.463Z,1001.85
2022-10-10T10:24:14.431Z,1001.88
2022-10-10T10:25:14.525Z,1001.87
2022-10-10T10:26:14.415Z,1001.90
2022-10-10T10:27:14.421Z,1001.91
2022-10-10T10:28:14.441Z,1001.95
2022-10-10T10:29:14.370Z,1001.96
2022-10-10T10:30:14.382Z,1001.94
2022-10-10T10:31:14.361Z,1001.96
2022-10-10T10:32:14.362Z,1001.98
2022-10-10T10:33:14.335Z,1001.97
2022-10-10T10:34:14.349Z,1001.99
2022-10-10T10:35:14.319Z,1002.01
2022-10-10T10:36:14.344Z,1002.00
2022-10-10T10:37:15.130Z,1002.02
2022-10-10T10:38:14.297Z,1002.04
2022-10-10T10:39:14.306Z,1002.01
2022-10-10T10:40:14.384Z,1001.99
2022-10-10T10:41:14.250Z,1001.97
2022-10-10T10:42:14.260Z,1001.99
2022-10-10T10:43:14.234Z,1001.96
2022-10-10T10:44:14.224Z,1001.98
2022-10-10T10:45:14.220Z,1001.94
2022-10-10T10:46:14.216Z,1001.97
2022-10-10T10:47:14.187Z,1001.97
2022-10-10T10:48:14.193Z,1001.94
2022-10-10T10:49:14.168Z,1001.95
2022-10-10T10:50:14.280Z,1001.99
2022-10-10T10:51:14.151Z,1001.99
2022-10-10T10:52:14.137Z,1002.04
2022-10-10T10:53:14.126Z,1002.00
2022-10-10T10:54:14.152Z,1002.02
2022-10-10T10:55:14.104Z,1001.97
2022-10-10T10:56:14.150Z,1002.00
2022-10-10T10:57:31.953Z,1001.99
2022-10-10T11:00:22.000Z,1001.99
2022-10-10T11:01:23.079Z,1002.00
2022-10-10T11:02:26.121Z,1001.99
2022-10-10T11:03:35.175Z,1002.00
2022-10-10T11:05:21.323Z,1001.97
2022-10-10T11:05:39.888Z,1001.96
2022-10-10T11:06:14.088Z,1001.96
2022-10-10T11:07:18.906Z,1001.97
2022-10-10T11:08:13.971Z,1002.03
2022-10-10T11:09:31.053Z,1001.98
2022-10-10T11:10:14.017Z,1002.04
2022-10-10T11:11:13.932Z,1002.01
2022-10-10T11:12:13.955Z,1002.05
2022-10-10T11:13:13.915Z,1002.07
2022-10-10T11:14:13.913Z,1002.04
2022-10-10T11:15:13.942Z,1002.07
2022-10-10T11:16:36.264Z,1002.08
2022-10-10T11:17:13.870Z,1002.06
2022-10-10T11:18:13.868Z,1002.08
2022-10-10T11:19:13.853Z,1002.10
2022-10-10T11:20:13.935Z,1002.10
2022-10-10T11:21:13.825Z,1002.12
2022-10-10T11:22:13.860Z,1002.12
2022-10-10T11:23:13.813Z,1002.10
2022-10-10T11:24:13.794Z,1002.10
2022-10-10T11:25:13.791Z,1002.08
2022-10-10T11:26:13.806Z,1002.10
2022-10-10T11:27:13.758Z,1002.17
2022-10-10T11:28:13.832Z,1002.12
2022-10-10T11:29:13.743Z,1002.13
2022-10-10T11:30:13.756Z,1002.09
2022-10-10T11:31:13.724Z,1002.10
2022-10-10T11:32:13.766Z,1002.09
2022-10-10T11:33:13.712Z,1002.10
2022-10-10T11:34:13.752Z,1002.09
2022-10-10T11:35:13.679Z,1002.14
2022-10-10T11:36:13.673Z,1002.10
2022-10-10T11:37:13.652Z,1002.16
2022-10-10T11:38:13.697Z,1002.09
2022-10-10T11:39:15.609Z,1002.11
2022-10-10T11:40:13.672Z,1002.13
2022-10-10T11:41:13.611Z,1002.12
2022-10-10T11:42:13.621Z,1002.14
2022-10-10T11:43:13.608Z,1002.13
2022-10-10T11:44:13.582Z,1002.12
2022-10-10T11:45:13.566Z,1002.14
2022-10-10T11:46:13.584Z,1002.14
2022-10-10T11:47:13.572Z,1002.16
2022-10-10T11:48:13.557Z,1002.19
2022-10-10T11:49:13.537Z,1002.19
2022-10-10T11:50:13.524Z,1002.19
2022-10-10T11:51:16.259Z,1002.15
2022-10-10T11:52:32.380Z,1002.15
2022-10-10T11:53:13.541Z,1002.15
2022-10-10T11:54:13.485Z,1002.16
2022-10-10T11:55:13.476Z,1002.12
2022-10-10T11:56:13.463Z,1002.12
2022-10-10T11:57:13.461Z,1002.15
2022-10-10T11:58:13.463Z,1002.13
2022-10-10T11:59:13.425Z,1002.18
2022-10-10T12:00:13.443Z,1002.18
2022-10-10T12:01:13.432Z,1002.17
2022-10-10T12:02:13.436Z,1002.19
2022-10-10T12:03:13.391Z,1002.20
2022-10-10T12:04:13.380Z,1002.18
2022-10-10T12:05:13.364Z,1002.20
2022-10-10T12:06:13.368Z,1002.20
2022-10-10T12:07:13.342Z,1002.24